createdAt,value
2023-05-12T00:00:33.404Z,24.19
2023-05-12T00:01:34.687Z,24.20
2023-05-12T00:02:32.926Z,24.17
2023-05-12T00:03:32.954Z,24.20
2023-05-12T00:04:34.037Z,24.20
2023-05-12T00:05:33.690Z,24.19
2023-05-12T00:06:33.768Z,24.21
2023-05-12T00:07:32.829Z,24.24
2023-05-12T00:08:33.883Z,24.22
2023-05-12T00:09:33.929Z,24.21
2023-05-12T00:10:33.025Z,24.21
2023-05-12T00:11:34.071Z,24.21
2023-05-12T00:12:34.134Z,24.19
2023-05-12T00:13:33.244Z,24.18
2023-05-12T00:14:34.305Z,24.18
2023-05-12T00:15:34.328Z,24.19
2023-05-12T00:16:33.421Z,24.18
2023-05-12T00:17:33.460Z,24.17
2023-05-12T00:18:34.543Z,24.19
2023-05-12T00:19:33.603Z,24.19
2023-05-12T00:20:33.626Z,24.19
2023-05-12T00:21:34.708Z,24.18
2023-05-12T00:22:34.768Z,24.18
2023-05-12T00:23:34.844Z,24.20
2023-05-12T00:24:34.878Z,24.18
2023-05-12T00:25:34.977Z,24.17
2023-05-12T00:26:35.019Z,24.18
2023-05-12T00:27:34.081Z,24.20
2023-05-12T00:28:35.142Z,24.18
2023-05-12T00:29:35.211Z,24.20
2023-05-12T00:30:35.452Z,24.18
2023-05-12T00:31:35.379Z,24.17
2023-05-12T00:32:34.417Z,24.17
2023-05-12T00:33:35.455Z,24.16
2023-05-12T00:34:35.541Z,24.15
2023-05-12T00:35:35.589Z,24.14
2023-05-12T00:36:34.650Z,24.15
2023-05-12T00:37:35.708Z,24.12
2023-05-12T00:38:35.781Z,24.14
2023-05-12T00:39:34.838Z,24.15
2023-05-12T00:40:35.910Z,24.14
2023-05-12T00:41:35.950Z,24.14
2023-05-12T00:42:36.022Z,24.16
2023-05-12T00:43:36.083Z,24.17
2023-05-12T00:44:35.124Z,24.17
2023-05-12T00:45:36.247Z,24.16
2023-05-12T00:46:35.299Z,24.17
2023-05-12T00:47:36.394Z,24.14
2023-05-12T00:48:35.406Z,24.15
2023-05-12T00:49:35.471Z,24.15
2023-05-12T00:50:36.521Z,24.18
2023-05-12T00:51:35.574Z,24.18
2023-05-12T00:52:35.648Z,24.16
2023-05-12T00:53:48.338Z,24.16
2023-05-12T00:54:36.703Z,24.15
2023-05-12T00:55:36.730Z,24.13
2023-05-12T00:56:35.700Z,24.12
2023-05-12T00:57:35.684Z,24.12
2023-05-12T00:58:36.688Z,24.12
2023-05-12T00:59:35.672Z,24.14
2023-05-12T01:00:35.672Z,24.14
2023-05-12T01:01:35.840Z,24.16
2023-05-12T01:02:36.819Z,24.18
2023-05-12T01:03:36.667Z,24.16
2023-05-12T01:04:36.636Z,24.15
2023-05-12T01:05:36.632Z,24.19
2023-05-12T01:06:35.610Z,24.19
2023-05-12T01:07:35.599Z,24.16
2023-05-12T01:08:36.610Z,24.14
2023-05-12T01:09:35.605Z,24.14
2023-05-12T01:10:36.605Z,24.13
2023-05-12T01:11:36.598Z,24.13
2023-05-12T01:12:35.603Z,24.12
2023-05-12T01:13:35.569Z,24.14
2023-05-12T01:14:35.556Z,24.14
2023-05-12T01:15:36.552Z,24.15
2023-05-12T01:16:35.551Z,24.15
2023-05-12T01:17:36.728Z,24.12
2023-05-12T01:18:35.731Z,24.12
2023-05-12T01:19:36.678Z,24.12
2023-05-12T01:20:36.726Z,24.13
2023-05-12T01:21:35.773Z,24.13
2023-05-12T01:22:35.833Z,24.10
2023-05-12T01:23:35.929Z,24.11
2023-05-12T01:24:35.926Z,24.12
2023-05-12T01:25:36.996Z,24.11
2023-05-12T01:26:37.032Z,24.12
2023-05-12T01:27:36.102Z,24.12
2023-05-12T01:28:37.141Z,24.14
2023-05-12T01:29:37.141Z,24.14
2023-05-12T01:30:37.166Z,24.14
2023-05-12T01:31:36.287Z,24.11
2023-05-12T01:32:37.293Z,24.09
2023-05-12T01:33:37.297Z,24.10
2023-05-12T01:34:36.332Z,24.10
2023-05-12T01:35:37.343Z,24.11
2023-05-12T01:36:37.370Z,24.08
2023-05-12T01:37:36.414Z,24.08
2023-05-12T01:38:36.472Z,24.10
2023-05-12T01:39:37.522Z,24.13
2023-05-12T01:40:36.564Z,24.12
2023-05-12T01:41:36.584Z,24.11
2023-05-12T01:42:36.637Z,24.11
2023-05-12T01:43:36.654Z,24.10
2023-05-12T01:44:37.729Z,24.10
2023-05-12T01:45:37.806Z,24.13
2023-05-12T01:46:37.849Z,24.15
2023-05-12T01:47:37.934Z,24.14
2023-05-12T01:48:36.894Z,24.13
2023-05-12T01:49:36.901Z,24.10
2023-05-12T01:50:37.013Z,24.11
2023-05-12T01:51:36.995Z,24.13
2023-05-12T01:52:38.022Z,24.11
2023-05-12T01:53:37.057Z,24.12
2023-05-12T01:54:38.072Z,24.12
2023-05-12T01:55:38.122Z,24.10
2023-05-12T01:56:38.149Z,24.12
2023-05-12T01:57:37.197Z,24.11
2023-05-12T01:58:38.288Z,24.10
2023-05-12T01:59:38.254Z,24.09
2023-05-12T02:00:37.315Z,24.10
2023-05-12T02:01:37.391Z,24.12
2023-05-12T02:02:39.717Z,24.11
2023-05-12T02:03:38.475Z,24.08
2023-05-12T02:04:38.324Z,24.08
2023-05-12T02:05:37.334Z,24.08
2023-05-12T02:06:38.355Z,24.06
2023-05-12T02:07:38.332Z,24.05
2023-05-12T02:08:37.630Z,24.07
2023-05-12T02:09:39.137Z,24.08
2023-05-12T02:10:38.500Z,24.06
2023-05-12T02:11:39.287Z,24.08
2023-05-12T02:12:39.168Z,24.09
2023-05-12T02:13:38.758Z,24.08
2023-05-12T02:14:38.711Z,24.11
2023-05-12T02:15:37.279Z,24.09
2023-05-12T02:16:38.691Z,24.07
2023-05-12T02:17:37.536Z,24.08
2023-05-12T02:18:37.357Z,24.06
2023-05-12T02:19:38.442Z,24.07
2023-05-12T02:20:38.471Z,24.08
2023-05-12T02:21:38.525Z,24.06
2023-05-12T02:22:38.597Z,24.05
2023-05-12T02:23:38.609Z,24.03
2023-05-12T02:24:37.781Z,24.04
2023-05-12T02:25:37.677Z,24.04
2023-05-12T02:26:38.690Z,24.04
2023-05-12T02:27:37.748Z,24.07
2023-05-12T02:28:38.795Z,24.07
2023-05-12T02:29:38.822Z,24.07
2023-05-12T02:30:37.874Z,24.07
2023-05-12T02:31:38.964Z,24.06
2023-05-12T02:32:37.972Z,24.06
2023-05-12T02:33:38.987Z,24.06
2023-05-12T02:34:39.061Z,24.06
2023-05-12T02:35:39.107Z,24.06
2023-05-12T02:36:38.224Z,24.03
2023-05-12T02:37:39.170Z,24.03
2023-05-12T02:38:39.376Z,24.02
2023-05-12T02:39:39.291Z,24.01
2023-05-12T02:40:38.328Z,24.04
2023-05-12T02:41:39.390Z,24.02
2023-05-12T02:42:39.448Z,24.05
2023-05-12T02:43:39.456Z,24.04
2023-05-12T02:44:38.544Z,24.04
2023-05-12T02:45:39.585Z,24.04
2023-05-12T02:46:39.623Z,24.05
2023-05-12T02:47:39.688Z,24.06
2023-05-12T02:48:38.738Z,24.04
2023-05-12T02:49:38.763Z,24.04
2023-05-12T02:50:38.807Z,24.04
2023-05-12T02:51:39.830Z,24.06
2023-05-12T02:52:38.884Z,24.07
2023-05-12T02:53:38.931Z,24.08
2023-05-12T02:54:40.516Z,24.07
2023-05-12T02:55:39.016Z,24.06
2023-05-12T02:56:39.075Z,24.06
2023-05-12T02:57:40.114Z,24.07
2023-05-12T02:58:40.147Z,24.07
2023-05-12T02:59:40.195Z,24.07
2023-05-12T03:00:40.239Z,24.05
2023-05-12T03:01:39.330Z,24.07
2023-05-12T03:02:40.397Z,24.05
2023-05-12T03:03:39.544Z,24.08
2023-05-12T03:04:40.403Z,24.06
2023-05-12T03:05:39.453Z,24.05
2023-05-12T03:06:39.494Z,24.04
2023-05-12T03:07:39.560Z,24.04
2023-05-12T03:08:40.609Z,24.06
2023-05-12T03:09:39.680Z,24.03
2023-05-12T03:10:40.729Z,24.04
2023-05-12T03:11:40.773Z,24.04
2023-05-12T03:12:40.822Z,24.05
2023-05-12T03:13:39.901Z,24.05
2023-05-12T03:14:40.948Z,24.04
2023-05-12T03:15:39.988Z,24.05
2023-05-12T03:16:41.089Z,24.06
2023-05-12T03:17:41.152Z,24.07
2023-05-12T03:18:40.195Z,24.06
2023-05-12T03:19:40.228Z,24.06
2023-05-12T03:20:41.297Z,24.07
2023-05-12T03:21:41.341Z,24.04
2023-05-12T03:22:41.417Z,24.04
2023-05-12T03:23:41.455Z,24.04
2023-05-12T03:24:41.542Z,24.04
2023-05-12T03:25:41.564Z,24.02
2023-05-12T03:26:40.652Z,24.03
2023-05-12T03:27:40.690Z,24.03
2023-05-12T03:28:41.754Z,24.05
2023-05-12T03:29:40.825Z,24.02
2023-05-12T03:30:40.872Z,24.03
2023-05-12T03:31:41.042Z,24.02
2023-05-12T03:32:41.016Z,24.02
2023-05-12T03:33:42.045Z,24.04
2023-05-12T03:34:41.145Z,24.04
2023-05-12T03:35:41.160Z,24.00
2023-05-12T03:36:42.222Z,24.02
2023-05-12T03:37:42.263Z,24.02
2023-05-12T03:38:41.376Z,24.02
2023-05-12T03:39:42.373Z,23.99
2023-05-12T03:40:41.446Z,23.99
2023-05-12T03:41:42.489Z,23.99
2023-05-12T03:42:41.566Z,23.99
2023-05-12T03:43:42.149Z,24.02
2023-05-12T03:44:41.664Z,24.03
2023-05-12T03:45:42.710Z,24.03
2023-05-12T03:46:41.902Z,24.03
2023-05-12T03:47:41.898Z,24.04
2023-05-12T03:48:41.907Z,24.01
2023-05-12T03:49:42.930Z,24.00
2023-05-12T03:50:41.967Z,24.01
2023-05-12T03:51:43.065Z,24.01
2023-05-12T03:52:43.095Z,24.01
2023-05-12T03:53:42.134Z,24.00
2023-05-12T03:54:42.183Z,24.01
2023-05-12T03:55:43.281Z,24.01
2023-05-12T03:56:42.292Z,24.01
2023-05-12T03:57:43.351Z,24.02
2023-05-12T03:58:42.412Z,23.99
2023-05-12T03:59:43.430Z,24.00
2023-05-12T04:00:42.541Z,23.99
2023-05-12T04:01:43.554Z,23.98
2023-05-12T04:02:43.650Z,24.01
2023-05-12T04:03:43.695Z,24.02
2023-05-12T04:04:42.650Z,24.00
2023-05-12T04:05:42.697Z,24.00
2023-05-12T04:06:43.768Z,24.00
2023-05-12T04:07:42.772Z,24.01
2023-05-12T04:08:42.819Z,24.03
2023-05-12T04:09:42.875Z,24.01
2023-05-12T04:10:43.905Z,23.98
2023-05-12T04:11:42.920Z,23.99
2023-05-12T04:12:43.956Z,23.96
2023-05-12T04:13:42.999Z,23.98
2023-05-12T04:14:44.223Z,23.99
2023-05-12T04:15:43.197Z,24.00
2023-05-12T04:16:44.217Z,23.98
2023-05-12T04:17:44.201Z,23.98
2023-05-12T04:18:43.266Z,23.96
2023-05-12T04:19:43.246Z,23.95
2023-05-12T04:20:44.287Z,23.96
2023-05-12T04:21:43.347Z,23.94
2023-05-12T04:22:44.434Z,23.93
2023-05-12T04:23:43.382Z,23.92
2023-05-12T04:24:44.421Z,23.92
2023-05-12T04:25:43.465Z,23.93
2023-05-12T04:26:44.522Z,23.94
2023-05-12T04:27:43.540Z,23.97
2023-05-12T04:28:43.610Z,23.97
2023-05-12T04:29:44.645Z,23.96
2023-05-12T04:30:44.683Z,23.95
2023-05-12T04:31:43.747Z,23.95
2023-05-12T04:32:43.822Z,23.98
2023-05-12T04:33:46.491Z,23.98
2023-05-12T04:34:43.817Z,23.97
2023-05-12T04:35:43.779Z,23.96
2023-05-12T04:36:44.790Z,23.98
2023-05-12T04:37:43.775Z,23.98
2023-05-12T04:38:44.802Z,23.99
2023-05-12T04:39:44.751Z,23.98
2023-05-12T04:40:43.730Z,23.99
2023-05-12T04:41:44.732Z,23.97
2023-05-12T04:42:44.734Z,23.96
2023-05-12T04:44:43.725Z,23.97
2023-05-12T04:45:44.770Z,23.97
2023-05-12T04:46:43.856Z,23.95
2023-05-12T04:47:44.754Z,23.98
2023-05-12T04:48:44.687Z,24.00
2023-05-12T04:49:43.716Z,24.01
2023-05-12T04:50:43.684Z,24.01
2023-05-12T04:51:44.691Z,23.99
2023-05-12T04:52:44.683Z,23.98
2023-05-12T04:53:44.693Z,23.98
2023-05-12T04:54:44.643Z,23.97
2023-05-12T04:55:43.648Z,23.95
2023-05-12T04:56:43.637Z,23.93
2023-05-12T04:57:44.635Z,23.92
2023-05-12T04:58:43.632Z,23.95
2023-05-12T04:59:44.668Z,23.94
2023-05-12T05:00:44.602Z,23.94
2023-05-12T05:01:43.780Z,23.94
2023-05-12T05:02:44.705Z,23.98
2023-05-12T05:03:44.659Z,23.97
2023-05-12T05:04:43.568Z,23.96
2023-05-12T05:05:44.579Z,23.97
2023-05-12T05:06:43.579Z,23.97
2023-05-12T05:07:43.596Z,23.74
2023-05-12T05:08:43.562Z,23.46
2023-05-12T05:09:44.568Z,23.32
2023-05-12T05:10:44.528Z,23.19
2023-05-12T05:11:43.530Z,23.09
2023-05-12T05:12:43.528Z,23.02
2023-05-12T05:13:43.515Z,22.99
2023-05-12T05:14:44.584Z,23.00
2023-05-12T05:15:44.561Z,23.03
2023-05-12T05:16:43.542Z,23.01
2023-05-12T05:17:44.645Z,22.98
2023-05-12T05:18:44.722Z,22.99
2023-05-12T05:19:54.750Z,22.98
2023-05-12T05:20:45.654Z,22.98
2023-05-12T05:21:44.722Z,22.99
2023-05-12T05:22:44.709Z,23.00
2023-05-12T05:23:43.709Z,22.97
2023-05-12T05:24:43.690Z,22.99
2023-05-12T05:25:44.701Z,23.04
2023-05-12T05:26:43.690Z,23.04
2023-05-12T05:27:44.675Z,23.01
2023-05-12T05:28:43.672Z,23.12
2023-05-12T05:29:43.678Z,23.18
2023-05-12T05:30:44.648Z,23.16
2023-05-12T05:31:44.779Z,23.16
2023-05-12T05:32:43.779Z,23.14
2023-05-12T05:33:44.726Z,23.11
2023-05-12T05:34:43.761Z,23.10
2023-05-12T05:35:43.647Z,23.24
2023-05-12T05:36:44.624Z,23.64
2023-05-12T05:37:43.627Z,23.93
2023-05-12T05:38:44.601Z,23.97
2023-05-12T05:39:43.609Z,24.19
2023-05-12T05:40:53.066Z,24.35
2023-05-12T05:41:44.570Z,24.48
2023-05-12T05:42:44.557Z,24.36
2023-05-12T05:43:43.557Z,24.39
2023-05-12T05:44:43.575Z,24.43
2023-05-12T05:45:44.564Z,24.52
2023-05-12T05:46:43.565Z,24.58
2023-05-12T05:47:43.574Z,24.45
2023-05-12T05:48:44.586Z,24.48
2023-05-12T05:49:43.539Z,24.45
2023-05-12T05:50:44.560Z,24.38
2023-05-12T05:51:44.500Z,24.58
2023-05-12T05:52:44.504Z,24.66
2023-05-12T05:53:44.522Z,24.63
2023-05-12T05:54:43.589Z,24.77
2023-05-12T05:55:43.669Z,24.92
2023-05-12T05:56:44.707Z,24.67
2023-05-12T05:57:44.741Z,24.74
2023-05-12T05:58:43.779Z,24.59
2023-05-12T05:59:44.850Z,24.62
2023-05-12T06:00:44.917Z,24.59
2023-05-12T06:01:43.934Z,24.65
2023-05-12T06:02:45.158Z,24.70
2023-05-12T06:03:45.113Z,24.72
2023-05-12T06:04:44.950Z,24.67
2023-05-12T06:05:44.980Z,24.57
2023-05-12T06:06:44.071Z,24.48
2023-05-12T06:07:45.106Z,24.46
2023-05-12T06:08:45.181Z,24.39
2023-05-12T06:09:45.188Z,24.34
2023-05-12T06:10:45.228Z,24.29
2023-05-12T06:11:44.257Z,24.23
2023-05-12T06:12:45.279Z,24.19
2023-05-12T06:13:45.275Z,24.15
2023-05-12T06:14:44.278Z,24.10
2023-05-12T06:15:45.274Z,24.05
2023-05-12T06:16:45.516Z,24.09
2023-05-12T06:17:45.399Z,24.15
2023-05-12T06:18:44.342Z,24.10
2023-05-12T06:19:45.298Z,24.05
2023-05-12T06:20:45.307Z,24.04
2023-05-12T06:21:44.302Z,24.06
2023-05-12T06:22:45.401Z,24.03
2023-05-12T06:23:45.313Z,24.04
2023-05-12T06:24:44.306Z,24.03
2023-05-12T06:25:45.297Z,24.05
2023-05-12T06:26:45.324Z,24.04
2023-05-12T06:27:45.380Z,24.09
2023-05-12T06:28:45.419Z,24.01
2023-05-12T06:29:45.463Z,24.11
2023-05-12T06:30:44.515Z,24.16
2023-05-12T06:31:45.556Z,24.13
2023-05-12T06:32:45.600Z,24.15
2023-05-12T06:33:45.609Z,24.11
2023-05-12T06:34:45.703Z,24.08
2023-05-12T06:35:44.710Z,24.18
2023-05-12T06:36:45.785Z,24.26
2023-05-12T06:37:44.802Z,24.30
2023-05-12T06:38:45.913Z,24.26
2023-05-12T06:39:44.923Z,24.19
2023-05-12T06:40:45.941Z,24.27
2023-05-12T06:41:45.019Z,24.19
2023-05-12T06:42:46.076Z,24.18
2023-05-12T06:43:45.132Z,24.22
2023-05-12T06:44:46.178Z,24.26
2023-05-12T06:45:45.258Z,24.20
2023-05-12T06:46:45.379Z,24.21
2023-05-12T06:47:46.383Z,24.17
2023-05-12T06:48:46.400Z,24.21
2023-05-12T06:49:46.452Z,24.30
2023-05-12T06:50:46.520Z,24.33
2023-05-12T06:51:45.535Z,24.33
2023-05-12T06:52:45.600Z,24.27
2023-05-12T06:53:46.657Z,24.24
2023-05-12T06:54:45.873Z,24.25
2023-05-12T06:55:46.771Z,24.35
2023-05-12T06:56:46.815Z,24.44
2023-05-12T06:57:46.880Z,24.47
2023-05-12T06:58:46.912Z,24.54
2023-05-12T06:59:46.951Z,24.56
2023-05-12T07:00:46.010Z,24.55
2023-05-12T07:01:47.128Z,24.56
2023-05-12T07:02:47.105Z,24.57
2023-05-12T07:03:47.155Z,24.55
2023-05-12T07:04:47.127Z,24.54
2023-05-12T07:05:47.196Z,24.56
2023-05-12T07:06:46.197Z,24.55
2023-05-12T07:07:47.207Z,24.57
2023-05-12T07:08:47.214Z,24.58
2023-05-12T07:09:47.267Z,24.60
2023-05-12T07:10:46.290Z,24.61
2023-05-12T07:11:47.280Z,24.64
2023-05-12T07:12:46.336Z,24.69
2023-05-12T07:13:47.329Z,24.67
2023-05-12T07:14:46.330Z,24.69
2023-05-12T07:15:46.478Z,24.73
2023-05-12T07:16:46.483Z,24.71
2023-05-12T07:17:47.453Z,24.71
2023-05-12T07:18:47.438Z,24.71
2023-05-12T07:19:47.404Z,24.73
2023-05-12T07:20:47.461Z,24.76
2023-05-12T07:21:47.425Z,24.73
2023-05-12T07:22:46.442Z,24.71
2023-05-12T07:23:47.455Z,24.73
2023-05-12T07:24:47.457Z,24.76
2023-05-12T07:25:46.716Z,24.77
2023-05-12T07:26:46.469Z,24.77
2023-05-12T07:27:47.473Z,24.78
2023-05-12T07:28:47.472Z,24.83
2023-05-12T07:29:46.455Z,24.82
2023-05-12T07:30:46.478Z,24.83
2023-05-12T07:31:46.619Z,24.86
2023-05-12T07:32:47.537Z,24.86
2023-05-12T07:33:47.483Z,24.90
2023-05-12T07:34:47.492Z,24.89
2023-05-12T07:35:47.490Z,24.88
2023-05-12T07:36:46.473Z,24.92
2023-05-12T07:37:47.478Z,24.95
2023-05-12T07:38:46.468Z,24.96
2023-05-12T07:39:46.461Z,24.96
2023-05-12T07:40:47.478Z,24.97
2023-05-12T07:41:46.501Z,24.99
2023-05-12T07:42:47.468Z,24.95
2023-05-12T07:43:47.469Z,24.94
2023-05-12T07:44:47.450Z,24.93
2023-05-12T07:45:46.475Z,24.94
2023-05-12T07:46:46.562Z,24.89
2023-05-12T07:47:47.496Z,24.90
2023-05-12T07:48:47.496Z,24.84
2023-05-12T07:49:46.505Z,24.79
2023-05-12T07:50:47.547Z,24.93
2023-05-12T07:51:47.049Z,24.89
2023-05-12T07:52:47.573Z,24.89
2023-05-12T07:53:46.555Z,24.86
2023-05-12T07:54:47.553Z,24.81
2023-05-12T07:55:46.579Z,24.80
2023-05-12T07:56:46.623Z,24.82
2023-05-12T07:57:46.769Z,24.78
2023-05-12T07:58:47.812Z,24.78
2023-05-12T07:59:47.707Z,24.80
2023-05-12T08:00:47.750Z,24.79
2023-05-12T08:01:47.789Z,24.80
2023-05-12T08:02:46.933Z,24.85
2023-05-12T08:03:48.066Z,24.85
2023-05-12T08:04:47.832Z,24.84
2023-05-12T08:05:46.840Z,24.86
2023-05-12T08:06:46.857Z,24.85
2023-05-12T08:07:47.868Z,24.86
2023-05-12T08:08:47.888Z,24.87
2023-05-12T08:09:47.893Z,24.93
2023-05-12T08:10:47.903Z,24.93
2023-05-12T08:11:51.323Z,24.97
2023-05-12T08:12:46.895Z,24.99
2023-05-12T08:13:47.916Z,25.00
2023-05-12T08:14:46.904Z,25.03
2023-05-12T08:15:47.856Z,25.02
2023-05-12T08:16:47.888Z,25.04
2023-05-12T08:17:47.865Z,25.04
2023-05-12T08:18:47.885Z,25.06
2023-05-12T08:19:46.836Z,25.04
2023-05-12T08:20:46.831Z,25.07
2023-05-12T08:21:47.835Z,25.08
2023-05-12T08:22:47.819Z,25.08
2023-05-12T08:23:46.800Z,25.01
2023-05-12T08:24:47.795Z,25.09
2023-05-12T08:25:47.797Z,25.09
2023-05-12T08:26:46.796Z,25.08
2023-05-12T08:27:47.779Z,25.14
2023-05-12T08:28:46.777Z,25.18
2023-05-12T08:29:47.792Z,25.18
2023-05-12T08:30:46.845Z,25.17
2023-05-12T08:31:47.758Z,25.16
2023-05-12T08:32:47.927Z,25.21
2023-05-12T08:33:51.881Z,25.20
2023-05-12T08:34:47.791Z,25.22
2023-05-12T08:35:46.804Z,25.23
2023-05-12T08:36:47.784Z,25.26
2023-05-12T08:37:46.867Z,25.24
2023-05-12T08:38:47.756Z,25.27
2023-05-12T08:39:46.754Z,25.26
2023-05-12T08:40:47.755Z,25.27
2023-05-12T08:41:47.061Z,25.26
2023-05-12T08:42:47.726Z,25.25
2023-05-12T08:43:47.720Z,25.33
2023-05-12T08:44:46.724Z,25.33
2023-05-12T08:45:47.894Z,25.36
2023-05-12T08:46:48.109Z,25.32
2023-05-12T08:47:46.737Z,25.30
2023-05-12T08:48:46.694Z,25.27
2023-05-12T08:49:48.551Z,25.29
2023-05-12T08:50:46.681Z,25.34
2023-05-12T08:51:56.814Z,25.38
2023-05-12T08:52:47.683Z,25.43
2023-05-12T08:53:47.680Z,25.44
2023-05-12T08:54:55.494Z,25.46
2023-05-12T08:56:01.145Z,25.49
2023-05-12T08:57:46.669Z,25.54
2023-05-12T08:58:47.624Z,25.52
2023-05-12T08:59:46.607Z,25.55
2023-05-12T09:00:47.670Z,25.57
2023-05-12T09:01:47.683Z,25.51
2023-05-12T09:02:53.862Z,25.51
2023-05-12T09:03:47.610Z,25.39
2023-05-12T09:04:46.670Z,25.36
2023-05-12T09:05:46.574Z,25.36
2023-05-12T09:06:47.577Z,25.41
2023-05-12T09:07:46.564Z,25.47
2023-05-12T09:08:47.596Z,25.55
2023-05-12T09:09:47.546Z,25.56
2023-05-12T09:10:46.560Z,25.54
2023-05-12T09:11:46.567Z,25.58
2023-05-12T09:12:47.525Z,25.49
2023-05-12T09:13:46.516Z,25.43
2023-05-12T09:14:46.520Z,25.49
2023-05-12T09:15:47.617Z,25.57
2023-05-12T09:16:47.544Z,25.60
2023-05-12T09:17:47.665Z,25.60
2023-05-12T09:18:47.623Z,25.62
2023-05-12T09:19:46.617Z,25.57
2023-05-12T09:20:47.633Z,25.48
2023-05-12T09:21:46.722Z,25.55
2023-05-12T09:22:47.698Z,25.59
2023-05-12T09:23:47.750Z,25.67
2023-05-12T09:24:47.783Z,25.57
2023-05-12T09:25:46.806Z,25.57
2023-05-12T09:26:47.890Z,25.56
2023-05-12T09:27:47.840Z,25.48
2023-05-12T09:28:47.882Z,25.57
2023-05-12T09:29:58.105Z,25.53
2023-05-12T09:30:47.916Z,25.53
2023-05-12T09:31:46.954Z,25.51
2023-05-12T09:32:47.914Z,25.43
2023-05-12T09:33:47.901Z,25.31
2023-05-12T09:34:46.857Z,24.94
2023-05-12T09:35:47.870Z,24.63
2023-05-12T09:36:46.861Z,24.18
2023-05-12T09:37:46.858Z,23.81
2023-05-12T09:38:47.863Z,23.73
2023-05-12T09:39:47.848Z,23.58
2023-05-12T09:40:47.823Z,23.42
2023-05-12T09:41:47.822Z,23.35
2023-05-12T09:42:47.808Z,23.24
2023-05-12T09:43:47.800Z,23.17
2023-05-12T09:44:47.810Z,23.01
2023-05-12T09:45:47.907Z,22.73
2023-05-12T09:46:47.806Z,22.70
2023-05-12T09:47:47.142Z,22.73
2023-05-12T09:48:47.783Z,22.65
2023-05-12T09:49:47.818Z,22.68
2023-05-12T09:50:47.861Z,22.85
2023-05-12T09:51:48.077Z,22.70
2023-05-12T09:52:46.730Z,22.83
2023-05-12T09:53:47.750Z,22.95
2023-05-12T09:54:47.729Z,22.84
2023-05-12T09:55:47.725Z,22.55
2023-05-12T09:56:46.715Z,22.33
2023-05-12T09:57:47.713Z,22.33
2023-05-12T09:58:47.682Z,22.36
2023-05-12T09:59:47.689Z,22.41
2023-05-12T10:01:47.747Z,22.62
2023-05-12T10:02:46.729Z,22.60
2023-05-12T10:03:47.672Z,22.53
2023-05-12T10:04:47.756Z,22.51
2023-05-12T10:05:46.725Z,22.27
2023-05-12T10:06:46.626Z,22.37
2023-05-12T10:07:46.629Z,22.51
2023-05-12T10:08:47.616Z,22.61
2023-05-12T10:09:46.626Z,22.69
2023-05-12T10:10:47.599Z,22.76
2023-05-12T10:11:47.589Z,22.78
2023-05-12T10:12:47.577Z,22.80
2023-05-12T10:13:47.632Z,22.77
2023-05-12T10:14:46.694Z,22.92
2023-05-12T10:15:46.746Z,22.97
2023-05-12T10:16:46.835Z,23.03
2023-05-12T10:17:47.873Z,22.98
2023-05-12T10:18:46.957Z,22.99
2023-05-12T10:19:47.849Z,23.01
2023-05-12T10:20:46.880Z,23.04
2023-05-12T10:21:47.980Z,23.08
2023-05-12T10:22:47.948Z,23.08
2023-05-12T10:23:47.020Z,23.10
2023-05-12T10:24:47.961Z,23.08
2023-05-12T10:25:48.002Z,22.92
2023-05-12T10:26:47.036Z,22.86
2023-05-12T10:27:48.058Z,22.95
2023-05-12T10:28:47.073Z,23.05
2023-05-12T10:29:48.119Z,23.09
2023-05-12T10:30:47.070Z,23.18
2023-05-12T10:31:48.222Z,23.23
2023-05-12T10:32:48.115Z,23.04
2023-05-12T10:33:48.143Z,23.03
2023-05-12T10:34:48.157Z,22.97
2023-05-12T10:35:49.301Z,23.03
2023-05-12T10:36:47.250Z,23.06
2023-05-12T10:37:47.294Z,23.12
2023-05-12T10:38:48.272Z,23.08
2023-05-12T10:39:48.336Z,23.07
2023-05-12T10:40:48.401Z,23.14
2023-05-12T10:41:47.299Z,23.19
2023-05-12T10:42:48.617Z,23.27
2023-05-12T10:43:47.301Z,23.29
2023-05-12T10:44:48.661Z,23.34
2023-05-12T10:45:48.426Z,23.38
2023-05-12T10:46:48.473Z,23.31
2023-05-12T10:47:48.637Z,23.27
2023-05-12T10:48:47.415Z,23.12
2023-05-12T10:49:47.395Z,23.01
2023-05-12T10:50:47.480Z,22.67
2023-05-12T10:51:47.527Z,22.38
2023-05-12T10:52:48.622Z,22.58
2023-05-12T10:53:50.085Z,22.62
2023-05-12T10:54:48.638Z,22.67
2023-05-12T10:55:48.944Z,22.64
2023-05-12T10:56:49.013Z,22.59
2023-05-12T10:57:47.864Z,22.50
2023-05-12T10:58:47.920Z,22.40
2023-05-12T10:59:48.080Z,22.38
2023-05-12T11:00:49.418Z,22.25
2023-05-12T11:01:48.026Z,22.27
2023-05-12T11:02:48.732Z,22.34
2023-05-12T11:03:48.578Z,22.49
2023-05-12T11:04:48.711Z,22.60
2023-05-12T11:05:49.068Z,22.67
2023-05-12T11:07:47.689Z,22.79
2023-05-12T11:08:48.228Z,22.88
2023-05-12T11:09:56.051Z,22.81
2023-05-12T11:10:48.660Z,22.89
2023-05-12T11:12:47.591Z,23.06
2023-05-12T11:13:48.590Z,23.08
2023-05-12T11:14:48.584Z,23.05
2023-05-12T11:15:48.635Z,23.04
2023-05-12T11:16:47.580Z,22.96
2023-05-12T11:17:47.668Z,22.78
2023-05-12T11:18:47.596Z,22.62
2023-05-12T11:19:47.529Z,22.45
2023-05-12T11:20:48.520Z,22.45
2023-05-12T11:21:48.568Z,22.32
2023-05-12T11:22:48.535Z,22.35
2023-05-12T11:23:48.501Z,22.37
2023-05-12T11:24:48.561Z,22.35
2023-05-12T11:25:48.542Z,22.42
2023-05-12T11:26:48.482Z,22.58
2023-05-12T11:27:47.481Z,22.74
2023-05-12T11:28:47.530Z,22.79
2023-05-12T11:29:47.532Z,22.72
2023-05-12T11:30:47.604Z,22.68
2023-05-12T11:31:48.649Z,22.82
2023-05-12T11:32:48.753Z,22.92
2023-05-12T11:33:51.837Z,22.90
2023-05-12T11:34:48.707Z,22.78
2023-05-12T11:35:48.651Z,22.60
2023-05-12T11:36:48.655Z,22.56
2023-05-12T11:37:48.681Z,22.42
2023-05-12T11:38:48.664Z,22.19
2023-05-12T11:39:48.618Z,22.01
2023-05-12T11:40:48.712Z,21.97
2023-05-12T11:41:48.842Z,21.80
2023-05-12T11:42:47.666Z,21.73
2023-05-12T11:43:47.641Z,21.59
2023-05-12T11:44:47.664Z,21.45
2023-05-12T11:45:47.705Z,21.48
2023-05-12T11:46:47.629Z,21.70
2023-05-12T11:47:47.669Z,21.67
2023-05-12T11:48:47.671Z,21.61
2023-05-12T11:49:48.674Z,21.64
2023-05-12T11:50:48.730Z,21.75
2023-05-12T11:51:48.666Z,22.04
2023-05-12T11:52:48.672Z,21.95
2023-05-12T11:53:47.693Z,22.16
2023-05-12T11:54:47.696Z,22.37
2023-05-12T11:55:47.767Z,22.26
2023-05-12T11:56:48.814Z,22.02
2023-05-12T11:57:48.784Z,21.83
2023-05-12T11:58:50.031Z,21.69
2023-05-12T11:59:48.812Z,21.60
2023-05-12T12:00:47.797Z,21.45
2023-05-12T12:01:48.819Z,21.36
2023-05-12T12:02:48.857Z,21.49
2023-05-12T12:03:47.873Z,21.71
2023-05-12T12:04:48.804Z,21.89
2023-05-12T12:05:47.848Z,22.03
2023-05-12T12:06:48.841Z,22.15
2023-05-12T12:07:47.885Z,21.97
2023-05-12T12:08:47.886Z,22.09
2023-05-12T12:09:48.906Z,22.04
2023-05-12T12:10:48.898Z,22.12
2023-05-12T12:11:47.903Z,22.10
2023-05-12T12:12:48.982Z,22.15
2023-05-12T12:13:48.941Z,22.25
2023-05-12T12:14:48.000Z,22.22
2023-05-12T12:15:49.066Z,22.36
2023-05-12T12:16:49.038Z,22.41
2023-05-12T12:17:48.117Z,22.63
2023-05-12T12:18:48.114Z,22.87
2023-05-12T12:19:48.088Z,23.02
2023-05-12T12:20:48.114Z,23.23
2023-05-12T12:21:49.118Z,23.28
2023-05-12T12:22:48.200Z,23.33
2023-05-12T12:23:51.764Z,23.33
2023-05-12T12:24:49.232Z,23.45
2023-05-12T12:25:49.221Z,23.54
2023-05-12T12:26:49.196Z,23.65
2023-05-12T12:27:48.200Z,23.73
2023-05-12T12:28:49.224Z,23.81
2023-05-12T12:29:48.198Z,23.83
2023-05-12T12:30:48.182Z,23.86
2023-05-12T12:31:48.274Z,23.90
2023-05-12T12:32:48.233Z,23.94
2023-05-12T12:33:48.169Z,24.02
2023-05-12T12:34:49.558Z,24.09
2023-05-12T12:35:49.129Z,24.14
2023-05-12T12:36:49.134Z,24.20
2023-05-12T12:37:49.128Z,24.23
2023-05-12T12:38:48.125Z,24.28
2023-05-12T12:39:48.117Z,24.33
2023-05-12T12:40:48.134Z,24.33
2023-05-12T12:41:48.186Z,24.37
2023-05-12T12:42:49.081Z,24.40
2023-05-12T12:43:49.108Z,24.41
2023-05-12T12:44:48.114Z,24.45
2023-05-12T12:45:52.069Z,24.48
2023-05-12T12:46:48.110Z,24.54
2023-05-12T12:47:49.105Z,24.61
2023-05-12T12:48:48.052Z,24.72
2023-05-12T12:49:49.036Z,24.71
2023-05-12T12:50:49.032Z,24.76
2023-05-12T12:51:48.044Z,24.82
2023-05-12T12:52:49.023Z,24.87
2023-05-12T12:53:49.028Z,24.90
2023-05-12T12:54:49.009Z,24.93
2023-05-12T12:55:49.010Z,24.96
2023-05-12T12:56:49.009Z,24.97
2023-05-12T12:57:48.978Z,24.99